sensor_id;sensor_type;location;lat;lon;timestamp;P1;durP1;ratioP1;P2;durP2;ratioP2
48317;SDS011;34127;47.412;9.730;2022-09-25T00:00:44;5.72;;;3.40;;
48317;SDS011;34127;47.412;9.730;2022-09-25T00:03:11;5.55;;;3.85;;
48317;SDS011;34127;47.412;9.730;2022-09-25T00:05:38;3.90;;;2.90;;
48317;SDS011;34127;47.412;9.730;2022-09-25T00:08:05;4.63;;;2.95;;
48317;SDS011;34127;47.412;9.730;2022-09-25T00:10:31;4.63;;;2.97;;
48317;SDS011;34127;47.412;9.730;2022-09-25T00:12:58;4.70;;;2.90;;
48317;SDS011;34127;47.412;9.730;2022-09-25T00:15:24;3.67;;;2.65;;
48317;SDS011;34127;47.412;9.730;2022-09-25T00:17:50;5.35;;;2.83;;
48317;SDS011;34127;47.412;9.730;2022-09-25T00:20:17;3.72;;;2.50;;
48317;SDS011;34127;47.412;9.730;2022-09-25T00:22:45;5.18;;;2.70;;
48317;SDS011;34127;47.412;9.730;2022-09-25T00:25:11;5.93;;;2.88;;
48317;SDS011;34127;47.412;9.730;2022-09-25T00:27:38;3.80;;;2.80;;
48317;SDS011;34127;47.412;9.730;2022-09-25T00:30:05;6.68;;;3.00;;
48317;SDS011;34127;47.412;9.730;2022-09-25T00:32:32;3.88;;;2.70;;
48317;SDS011;34127;47.412;9.730;2022-09-25T00:34:58;9.30;;;3.05;;
48317;SDS011;34127;47.412;9.730;2022-09-25T00:37:24;5.85;;;2.90;;
48317;SDS011;34127;47.412;9.730;2022-09-25T00:39:52;4.68;;;2.80;;
48317;SDS011;34127;47.412;9.730;2022-09-25T00:42:20;5.30;;;2.88;;
48317;SDS011;34127;47.412;9.730;2022-09-25T00:48:07;6.07;;;3.00;;
48317;SDS011;34127;47.412;9.730;2022-09-25T00:50:23;8.48;;;3.58;;
48317;SDS011;34127;47.412;9.730;2022-09-25T00:52:50;5.50;;;3.47;;
48317;SDS011;34127;47.412;9.730;2022-09-25T00:55:18;5.38;;;3.58;;
48317;SDS011;34127;47.412;9.730;2022-09-25T00:57:48;6.38;;;4.35;;
48317;SDS011;34127;47.412;9.730;2022-09-25T01:00:15;6.50;;;4.68;;
48317;SDS011;34127;47.412;9.730;2022-09-25T01:02:42;6.80;;;4.53;;
48317;SDS011;34127;47.412;9.730;2022-09-25T01:05:11;7.13;;;4.45;;
48317;SDS011;34127;47.412;9.730;2022-09-25T01:07:39;6.68;;;4.30;;
48317;SDS011;34127;47.412;9.730;2022-09-25T01:10:07;7.35;;;5.20;;
48317;SDS011;34127;47.412;9.730;2022-09-25T01:12:39;7.68;;;4.97;;
48317;SDS011;34127;47.412;9.730;2022-09-25T01:15:06;5.85;;;4.60;;
48317;SDS011;34127;47.412;9.730;2022-09-25T01:17:54;6.80;;;4.07;;
48317;SDS011;34127;47.412;9.730;2022-09-25T01:23:15;6.28;;;3.83;;
48317;SDS011;34127;47.412;9.730;2022-09-25T01:31:17;5.10;;;3.53;;
48317;SDS011;34127;47.412;9.730;2022-09-25T01:33:50;5.93;;;3.33;;
48317;SDS011;34127;47.412;9.730;2022-09-25T01:36:24;6.25;;;3.50;;
48317;SDS011;34127;47.412;9.730;2022-09-25T01:38:54;4.93;;;2.80;;
48317;SDS011;34127;47.412;9.730;2022-09-25T01:41:26;6.50;;;3.10;;
48317;SDS011;34127;47.412;9.730;2022-09-25T01:44:08;5.65;;;2.80;;
48317;SDS011;34127;47.412;9.730;2022-09-25T01:46:37;3.95;;;2.83;;
48317;SDS011;34127;47.412;9.730;2022-09-25T01:49:07;5.95;;;3.20;;
48317;SDS011;34127;47.412;9.730;2022-09-25T01:51:35;4.55;;;2.90;;
48317;SDS011;34127;47.412;9.730;2022-09-25T01:54:04;4.47;;;3.15;;
48317;SDS011;34127;47.412;9.730;2022-09-25T01:56:41;5.60;;;3.50;;
48317;SDS011;34127;47.412;9.730;2022-09-25T02:01:40;8.18;;;3.80;;
48317;SDS011;34127;47.412;9.730;2022-09-25T02:04:09;17.13;;;5.05;;
48317;SDS011;34127;47.412;9.730;2022-09-25T02:06:40;8.30;;;5.57;;
48317;SDS011;34127;47.412;9.730;2022-09-25T02:09:09;9.50;;;6.25;;
48317;SDS011;34127;47.412;9.730;2022-09-25T02:11:42;8.60;;;6.30;;
48317;SDS011;34127;47.412;9.730;2022-09-25T02:14:14;9.27;;;6.50;;
48317;SDS011;34127;47.412;9.730;2022-09-25T02:16:42;9.85;;;6.68;;
48317;SDS011;34127;47.412;9.730;2022-09-25T02:19:08;11.57;;;7.22;;
48317;SDS011;34127;47.412;9.730;2022-09-25T02:22:09;11.23;;;7.27;;
48317;SDS011;34127;47.412;9.730;2022-09-25T02:27:01;13.15;;;9.70;;
48317;SDS011;34127;47.412;9.730;2022-09-25T02:29:28;12.52;;;9.50;;
48317;SDS011;34127;47.412;9.730;2022-09-25T02:34:21;12.43;;;8.05;;
48317;SDS011;34127;47.412;9.730;2022-09-25T02:36:48;11.50;;;8.05;;
48317;SDS011;34127;47.412;9.730;2022-09-25T02:39:15;10.38;;;7.78;;
48317;SDS011;34127;47.412;9.730;2022-09-25T02:41:48;11.85;;;7.70;;
48317;SDS011;34127;47.412;9.730;2022-09-25T02:49:49;10.68;;;8.20;;
48317;SDS011;34127;47.412;9.730;2022-09-25T02:52:26;11.38;;;8.18;;
48317;SDS011;34127;47.412;9.730;2022-09-25T02:54:54;9.45;;;6.07;;
48317;SDS011;34127;47.412;9.730;2022-09-25T02:57:28;9.25;;;6.70;;
48317;SDS011;34127;47.412;9.730;2022-09-25T02:59:58;10.68;;;6.53;;
48317;SDS011;34127;47.412;9.730;2022-09-25T03:02:25;8.07;;;6.10;;
48317;SDS011;34127;47.412;9.730;2022-09-25T03:04:52;8.18;;;5.50;;
48317;SDS011;34127;47.412;9.730;2022-09-25T03:07:19;8.63;;;5.45;;
48317;SDS011;34127;47.412;9.730;2022-09-25T03:09:46;6.28;;;3.85;;
48317;SDS011;34127;47.412;9.730;2022-09-25T03:12:13;9.02;;;3.60;;
48317;SDS011;34127;47.412;9.730;2022-09-25T03:14:39;5.40;;;3.47;;
48317;SDS011;34127;47.412;9.730;2022-09-25T03:17:06;6.82;;;3.10;;
48317;SDS011;34127;47.412;9.730;2022-09-25T03:19:34;4.03;;;2.90;;
48317;SDS011;34127;47.412;9.730;2022-09-25T03:22:00;6.82;;;3.30;;
48317;SDS011;34127;47.412;9.730;2022-09-25T03:24:27;4.13;;;2.67;;
48317;SDS011;34127;47.412;9.730;2022-09-25T03:26:53;5.13;;;2.90;;
48317;SDS011;34127;47.412;9.730;2022-09-25T03:29:20;6.32;;;2.65;;
48317;SDS011;34127;47.412;9.730;2022-09-25T03:31:46;5.63;;;3.15;;
48317;SDS011;34127;47.412;9.730;2022-09-25T03:34:13;4.93;;;2.60;;
48317;SDS011;34127;47.412;9.730;2022-09-25T03:36:40;4.07;;;2.78;;
48317;SDS011;34127;47.412;9.730;2022-09-25T03:39:06;4.82;;;2.92;;
48317;SDS011;34127;47.412;9.730;2022-09-25T03:41:35;4.47;;;3.00;;
48317;SDS011;34127;47.412;9.730;2022-09-25T03:44:01;4.00;;;3.00;;
48317;SDS011;34127;47.412;9.730;2022-09-25T03:46:29;4.97;;;3.08;;
48317;SDS011;34127;47.412;9.730;2022-09-25T03:48:55;4.60;;;2.88;;
48317;SDS011;34127;47.412;9.730;2022-09-25T03:51:22;4.25;;;2.80;;
48317;SDS011;34127;47.412;9.730;2022-09-25T03:53:49;6.70;;;3.65;;
48317;SDS011;34127;47.412;9.730;2022-09-25T03:56:16;6.63;;;4.05;;
48317;SDS011;34127;47.412;9.730;2022-09-25T03:58:44;7.10;;;4.47;;
48317;SDS011;34127;47.412;9.730;2022-09-25T04:01:10;6.68;;;4.50;;
48317;SDS011;34127;47.412;9.730;2022-09-25T04:03:37;7.45;;;4.55;;
48317;SDS011;34127;47.412;9.730;2022-09-25T04:06:04;9.40;;;6.47;;
48317;SDS011;34127;47.412;9.730;2022-09-25T04:08:31;10.13;;;6.32;;
48317;SDS011;34127;47.412;9.730;2022-09-25T04:10:57;11.25;;;7.00;;
48317;SDS011;34127;47.412;9.730;2022-09-25T04:13:24;12.25;;;7.97;;
48317;SDS011;34127;47.412;9.730;2022-09-25T04:15:50;12.65;;;8.52;;
48317;SDS011;34127;47.412;9.730;2022-09-25T04:18:17;12.27;;;9.10;;
48317;SDS011;34127;47.412;9.730;2022-09-25T04:20:43;15.80;;;9.25;;
48317;SDS011;34127;47.412;9.730;2022-09-25T04:23:10;15.73;;;10.05;;
48317;SDS011;34127;47.412;9.730;2022-09-25T04:25:36;17.20;;;11.30;;
48317;SDS011;34127;47.412;9.730;2022-09-25T04:28:02;16.70;;;11.63;;
48317;SDS011;34127;47.412;9.730;2022-09-25T04:30:29;19.20;;;12.32;;
48317;SDS011;34127;47.412;9.730;2022-09-25T04:32:55;17.77;;;12.75;;
48317;SDS011;34127;47.412;9.730;2022-09-25T04:35:40;20.48;;;12.80;;
48317;SDS011;34127;47.412;9.730;2022-09-25T04:38:07;18.73;;;12.77;;
48317;SDS011;34127;47.412;9.730;2022-09-25T04:40:34;20.48;;;13.55;;
48317;SDS011;34127;47.412;9.730;2022-09-25T04:43:01;16.92;;;12.50;;
48317;SDS011;34127;47.412;9.730;2022-09-25T04:45:28;18.42;;;12.93;;
48317;SDS011;34127;47.412;9.730;2022-09-25T04:47:55;19.52;;;14.40;;
48317;SDS011;34127;47.412;9.730;2022-09-25T04:50:24;22.75;;;14.57;;
48317;SDS011;34127;47.412;9.730;2022-09-25T04:52:50;23.25;;;15.63;;
48317;SDS011;34127;47.412;9.730;2022-09-25T04:55:17;26.45;;;17.27;;
48317;SDS011;34127;47.412;9.730;2022-09-25T04:57:43;29.92;;;19.73;;
48317;SDS011;34127;47.412;9.730;2022-09-25T05:00:10;29.85;;;19.42;;
48317;SDS011;34127;47.412;9.730;2022-09-25T05:02:39;32.00;;;19.77;;
48317;SDS011;34127;47.412;9.730;2022-09-25T05:05:06;33.05;;;20.63;;
48317;SDS011;34127;47.412;9.730;2022-09-25T05:07:32;35.47;;;22.42;;
48317;SDS011;34127;47.412;9.730;2022-09-25T05:09:59;37.25;;;22.92;;
48317;SDS011;34127;47.412;9.730;2022-09-25T05:12:25;37.17;;;24.02;;
48317;SDS011;34127;47.412;9.730;2022-09-25T05:14:51;41.70;;;24.90;;
48317;SDS011;34127;47.412;9.730;2022-09-25T05:17:17;37.90;;;23.65;;
48317;SDS011;34127;47.412;9.730;2022-09-25T05:19:44;36.67;;;22.88;;
48317;SDS011;34127;47.412;9.730;2022-09-25T05:22:10;36.53;;;22.80;;
48317;SDS011;34127;47.412;9.730;2022-09-25T05:24:36;36.92;;;23.63;;
48317;SDS011;34127;47.412;9.730;2022-09-25T05:27:02;36.72;;;22.73;;
48317;SDS011;34127;47.412;9.730;2022-09-25T05:29:28;32.15;;;21.65;;
48317;SDS011;34127;47.412;9.730;2022-09-25T05:31:55;32.00;;;21.83;;
48317;SDS011;34127;47.412;9.730;2022-09-25T05:34:21;31.40;;;19.88;;
48317;SDS011;34127;47.412;9.730;2022-09-25T05:36:47;31.27;;;20.50;;
48317;SDS011;34127;47.412;9.730;2022-09-25T05:39:14;33.88;;;20.38;;
48317;SDS011;34127;47.412;9.730;2022-09-25T05:41:40;30.83;;;19.50;;
48317;SDS011;34127;47.412;9.730;2022-09-25T05:44:06;28.67;;;19.70;;
48317;SDS011;34127;47.412;9.730;2022-09-25T05:46:37;33.05;;;19.50;;
48317;SDS011;34127;47.412;9.730;2022-09-25T05:49:03;27.65;;;18.98;;
48317;SDS011;34127;47.412;9.730;2022-09-25T05:51:30;29.60;;;20.83;;
48317;SDS011;34127;47.412;9.730;2022-09-25T05:53:56;27.05;;;18.70;;
48317;SDS011;34127;47.412;9.730;2022-09-25T05:56:23;28.13;;;20.10;;
48317;SDS011;34127;47.412;9.730;2022-09-25T05:58:49;26.25;;;18.35;;
48317;SDS011;34127;47.412;9.730;2022-09-25T06:01:16;26.40;;;18.35;;
48317;SDS011;34127;47.412;9.730;2022-09-25T06:03:42;26.08;;;17.90;;
48317;SDS011;34127;47.412;9.730;2022-09-25T06:06:08;22.60;;;16.60;;
48317;SDS011;34127;47.412;9.730;2022-09-25T06:08:34;28.25;;;17.13;;
48317;SDS011;34127;47.412;9.730;2022-09-25T06:11:02;25.05;;;15.23;;
48317;SDS011;34127;47.412;9.730;2022-09-25T06:13:29;21.92;;;14.65;;
48317;SDS011;34127;47.412;9.730;2022-09-25T06:15:59;21.63;;;14.15;;
48317;SDS011;34127;47.412;9.730;2022-09-25T06:18:25;19.35;;;13.60;;
48317;SDS011;34127;47.412;9.730;2022-09-25T06:20:57;19.52;;;13.27;;
48317;SDS011;34127;47.412;9.730;2022-09-25T06:23:23;21.88;;;13.55;;
48317;SDS011;34127;47.412;9.730;2022-09-25T06:25:50;15.45;;;11.52;;
48317;SDS011;34127;47.412;9.730;2022-09-25T06:28:16;17.63;;;10.93;;
48317;SDS011;34127;47.412;9.730;2022-09-25T06:30:42;16.70;;;11.52;;
48317;SDS011;34127;47.412;9.730;2022-09-25T06:33:10;15.05;;;9.90;;
48317;SDS011;34127;47.412;9.730;2022-09-25T06:35:43;12.07;;;8.77;;
48317;SDS011;34127;47.412;9.730;2022-09-25T06:38:10;13.00;;;7.50;;
48317;SDS011;34127;47.412;9.730;2022-09-25T06:40:36;7.38;;;5.32;;
48317;SDS011;34127;47.412;9.730;2022-09-25T06:43:04;11.02;;;7.00;;
48317;SDS011;34127;47.412;9.730;2022-09-25T06:45:31;11.82;;;7.25;;
48317;SDS011;34127;47.412;9.730;2022-09-25T06:48:08;7.50;;;5.72;;
48317;SDS011;34127;47.412;9.730;2022-09-25T06:50:50;9.38;;;6.55;;
48317;SDS011;34127;47.412;9.730;2022-09-25T06:53:18;8.52;;;6.15;;
48317;SDS011;34127;47.412;9.730;2022-09-25T06:55:44;8.80;;;6.57;;
48317;SDS011;34127;47.412;9.730;2022-09-25T06:58:18;9.38;;;7.05;;
48317;SDS011;34127;47.412;9.730;2022-09-25T07:00:45;10.48;;;7.05;;
48317;SDS011;34127;47.412;9.730;2022-09-25T07:03:12;11.32;;;7.57;;
48317;SDS011;34127;47.412;9.730;2022-09-25T07:06:00;11.10;;;7.65;;
48317;SDS011;34127;47.412;9.730;2022-09-25T07:08:27;12.40;;;8.05;;
48317;SDS011;34127;47.412;9.730;2022-09-25T07:10:54;12.48;;;8.05;;
48317;SDS011;34127;47.412;9.730;2022-09-25T07:13:22;13.25;;;10.02;;
48317;SDS011;34127;47.412;9.730;2022-09-25T07:15:52;14.73;;;9.80;;
48317;SDS011;34127;47.412;9.730;2022-09-25T07:18:19;13.85;;;9.95;;
48317;SDS011;34127;47.412;9.730;2022-09-25T07:20:45;16.13;;;11.05;;
48317;SDS011;34127;47.412;9.730;2022-09-25T07:23:12;16.35;;;11.50;;
48317;SDS011;34127;47.412;9.730;2022-09-25T07:25:38;17.95;;;11.05;;
48317;SDS011;34127;47.412;9.730;2022-09-25T07:28:05;14.23;;;10.98;;
48317;SDS011;34127;47.412;9.730;2022-09-25T07:30:32;17.00;;;11.18;;
48317;SDS011;34127;47.412;9.730;2022-09-25T07:32:58;15.52;;;11.15;;
48317;SDS011;34127;47.412;9.730;2022-09-25T07:35:24;13.52;;;9.98;;
48317;SDS011;34127;47.412;9.730;2022-09-25T07:37:57;16.83;;;11.02;;
48317;SDS011;34127;47.412;9.730;2022-09-25T07:40:23;16.50;;;11.43;;
48317;SDS011;34127;47.412;9.730;2022-09-25T07:42:59;14.27;;;10.95;;
48317;SDS011;34127;47.412;9.730;2022-09-25T07:45:26;14.52;;;10.43;;
48317;SDS011;34127;47.412;9.730;2022-09-25T07:47:56;14.20;;;10.45;;
48317;SDS011;34127;47.412;9.730;2022-09-25T07:50:22;12.38;;;9.30;;
48317;SDS011;34127;47.412;9.730;2022-09-25T07:52:48;14.52;;;9.45;;
48317;SDS011;34127;47.412;9.730;2022-09-25T07:55:14;13.35;;;9.90;;
48317;SDS011;34127;47.412;9.730;2022-09-25T07:57:42;11.90;;;8.43;;
48317;SDS011;34127;47.412;9.730;2022-09-25T08:00:08;12.55;;;9.07;;
48317;SDS011;34127;47.412;9.730;2022-09-25T08:02:35;13.70;;;9.55;;
48317;SDS011;34127;47.412;9.730;2022-09-25T08:05:01;13.75;;;9.60;;
48317;SDS011;34127;47.412;9.730;2022-09-25T08:07:27;13.73;;;9.27;;
48317;SDS011;34127;47.412;9.730;2022-09-25T08:09:53;11.82;;;8.93;;
48317;SDS011;34127;47.412;9.730;2022-09-25T08:12:20;10.18;;;8.05;;
48317;SDS011;34127;47.412;9.730;2022-09-25T08:14:50;12.02;;;8.45;;
48317;SDS011;34127;47.412;9.730;2022-09-25T08:17:16;11.50;;;8.32;;
48317;SDS011;34127;47.412;9.730;2022-09-25T08:19:43;12.63;;;8.65;;
48317;SDS011;34127;47.412;9.730;2022-09-25T08:22:09;11.27;;;7.95;;
48317;SDS011;34127;47.412;9.730;2022-09-25T08:24:35;11.65;;;8.85;;
48317;SDS011;34127;47.412;9.730;2022-09-25T08:27:02;9.95;;;6.90;;
48317;SDS011;34127;47.412;9.730;2022-09-25T08:29:28;10.63;;;6.75;;
48317;SDS011;34127;47.412;9.730;2022-09-25T08:31:55;8.70;;;6.40;;
48317;SDS011;34127;47.412;9.730;2022-09-25T08:34:21;9.95;;;6.97;;
48317;SDS011;34127;47.412;9.730;2022-09-25T08:36:48;10.60;;;6.78;;
48317;SDS011;34127;47.412;9.730;2022-09-25T08:39:15;9.18;;;7.28;;
48317;SDS011;34127;47.412;9.730;2022-09-25T08:46:48;10.38;;;7.25;;
48317;SDS011;34127;47.412;9.730;2022-09-25T08:49:40;11.13;;;7.95;;
48317;SDS011;34127;47.412;9.730;2022-09-25T08:52:10;9.95;;;7.57;;
48317;SDS011;34127;47.412;9.730;2022-09-25T08:54:38;12.65;;;7.63;;
48317;SDS011;34127;47.412;9.730;2022-09-25T08:59:34;13.02;;;10.75;;
48317;SDS011;34127;47.412;9.730;2022-09-25T09:02:08;15.25;;;11.50;;
48317;SDS011;34127;47.412;9.730;2022-09-25T09:04:37;16.63;;;12.40;;
48317;SDS011;34127;47.412;9.730;2022-09-25T09:07:07;17.17;;;13.13;;
48317;SDS011;34127;47.412;9.730;2022-09-25T09:09:39;16.45;;;12.77;;
48317;SDS011;34127;47.412;9.730;2022-09-25T09:12:12;18.05;;;14.07;;
48317;SDS011;34127;47.412;9.730;2022-09-25T09:14:43;19.80;;;13.65;;
48317;SDS011;34127;47.412;9.730;2022-09-25T09:17:15;20.35;;;14.70;;
48317;SDS011;34127;47.412;9.730;2022-09-25T09:19:44;19.58;;;14.13;;
48317;SDS011;34127;47.412;9.730;2022-09-25T09:22:14;17.85;;;13.00;;
48317;SDS011;34127;47.412;9.730;2022-09-25T09:24:52;18.55;;;13.77;;
48317;SDS011;34127;47.412;9.730;2022-09-25T09:30:21;17.38;;;13.32;;
48317;SDS011;34127;47.412;9.730;2022-09-25T09:38:23;15.88;;;11.30;;
48317;SDS011;34127;47.412;9.730;2022-09-25T09:40:54;17.08;;;11.90;;
48317;SDS011;34127;47.412;9.730;2022-09-25T09:48:57;14.43;;;10.55;;
48317;SDS011;34127;47.412;9.730;2022-09-25T09:51:31;16.95;;;11.75;;
48317;SDS011;34127;47.412;9.730;2022-09-25T09:54:01;14.85;;;10.55;;
48317;SDS011;34127;47.412;9.730;2022-09-25T09:56:30;16.67;;;11.23;;
48317;SDS011;34127;47.412;9.730;2022-09-25T10:01:27;15.88;;;10.30;;
48317;SDS011;34127;47.412;9.730;2022-09-25T10:03:57;16.20;;;10.10;;
48317;SDS011;34127;47.412;9.730;2022-09-25T10:06:27;14.48;;;9.52;;
48317;SDS011;34127;47.412;9.730;2022-09-25T10:08:54;13.00;;;9.43;;
48317;SDS011;34127;47.412;9.730;2022-09-25T10:11:21;13.57;;;9.43;;
48317;SDS011;34127;47.412;9.730;2022-09-25T10:13:47;12.93;;;9.43;;
48317;SDS011;34127;47.412;9.730;2022-09-25T10:16:15;11.85;;;8.80;;
48317;SDS011;34127;47.412;9.730;2022-09-25T10:21:36;10.75;;;8.40;;
48317;SDS011;34127;47.412;9.730;2022-09-25T10:24:03;12.40;;;9.35;;
48317;SDS011;34127;47.412;9.730;2022-09-25T10:26:30;12.95;;;8.43;;
48317;SDS011;34127;47.412;9.730;2022-09-25T10:29:00;12.55;;;8.80;;
48317;SDS011;34127;47.412;9.730;2022-09-25T10:31:29;11.35;;;9.18;;
48317;SDS011;34127;47.412;9.730;2022-09-25T10:36:33;10.90;;;8.90;;
48317;SDS011;34127;47.412;9.730;2022-09-25T10:39:00;13.30;;;8.55;;
48317;SDS011;34127;47.412;9.730;2022-09-25T10:41:27;11.45;;;7.93;;
48317;SDS011;34127;47.412;9.730;2022-09-25T10:43:57;10.68;;;8.07;;
48317;SDS011;34127;47.412;9.730;2022-09-25T10:46:31;11.35;;;8.18;;
48317;SDS011;34127;47.412;9.730;2022-09-25T10:52:03;12.15;;;8.98;;
48317;SDS011;34127;47.412;9.730;2022-09-25T10:54:29;16.42;;;9.43;;
48317;SDS011;34127;47.412;9.730;2022-09-25T10:56:56;12.07;;;8.77;;
48317;SDS011;34127;47.412;9.730;2022-09-25T10:59:23;12.32;;;9.57;;
48317;SDS011;34127;47.412;9.730;2022-09-25T11:01:50;11.48;;;9.18;;
48317;SDS011;34127;47.412;9.730;2022-09-25T11:06:49;12.45;;;8.82;;
48317;SDS011;34127;47.412;9.730;2022-09-25T11:09:29;13.27;;;9.27;;
48317;SDS011;34127;47.412;9.730;2022-09-25T11:12:05;12.30;;;8.85;;
48317;SDS011;34127;47.412;9.730;2022-09-25T11:14:32;11.18;;;8.15;;
48317;SDS011;34127;47.412;9.730;2022-09-25T11:17:00;10.13;;;8.13;;
48317;SDS011;34127;47.412;9.730;2022-09-25T11:19:33;11.23;;;7.93;;
48317;SDS011;34127;47.412;9.730;2022-09-25T11:22:01;9.43;;;7.63;;
48317;SDS011;34127;47.412;9.730;2022-09-25T11:24:33;10.20;;;7.20;;
48317;SDS011;34127;47.412;9.730;2022-09-25T11:29:39;8.73;;;6.88;;
48317;SDS011;34127;47.412;9.730;2022-09-25T11:37:30;8.95;;;6.78;;
48317;SDS011;34127;47.412;9.730;2022-09-25T12:06:20;7.97;;;6.30;;
48317;SDS011;34127;47.412;9.730;2022-09-25T12:14:12;8.32;;;5.82;;
48317;SDS011;34127;47.412;9.730;2022-09-25T12:16:53;7.55;;;5.63;;
48317;SDS011;34127;47.412;9.730;2022-09-25T12:24:36;8.30;;;6.55;;
48317;SDS011;34127;47.412;9.730;2022-09-25T12:32:40;9.45;;;7.10;;
48317;SDS011;34127;47.412;9.730;2022-09-25T12:35:26;11.23;;;7.82;;
48317;SDS011;34127;47.412;9.730;2022-09-25T12:37:57;10.38;;;7.60;;
48317;SDS011;34127;47.412;9.730;2022-09-25T12:43:02;10.45;;;7.35;;
48317;SDS011;34127;47.412;9.730;2022-09-25T12:45:43;8.93;;;6.72;;
48317;SDS011;34127;47.412;9.730;2022-09-25T12:51:00;12.05;;;8.25;;
48317;SDS011;34127;47.412;9.730;2022-09-25T12:56:45;10.05;;;7.30;;
48317;SDS011;34127;47.412;9.730;2022-09-25T13:06:21;12.52;;;9.65;;
48317;SDS011;34127;47.412;9.730;2022-09-25T13:09:06;11.48;;;9.10;;
48317;SDS011;34127;47.412;9.730;2022-09-25T13:11:38;12.40;;;9.40;;
48317;SDS011;34127;47.412;9.730;2022-09-25T13:14:32;12.77;;;9.70;;
48317;SDS011;34127;47.412;9.730;2022-09-25T13:16:56;11.65;;;9.10;;
48317;SDS011;34127;47.412;9.730;2022-09-25T13:19:26;11.77;;;9.40;;
48317;SDS011;34127;47.412;9.730;2022-09-25T13:21:58;13.20;;;9.55;;
48317;SDS011;34127;47.412;9.730;2022-09-25T13:24:26;12.50;;;8.90;;
48317;SDS011;34127;47.412;9.730;2022-09-25T13:26:53;12.85;;;9.32;;
48317;SDS011;34127;47.412;9.730;2022-09-25T13:29:28;10.40;;;8.60;;
48317;SDS011;34127;47.412;9.730;2022-09-25T13:32:03;10.90;;;8.40;;
48317;SDS011;34127;47.412;9.730;2022-09-25T13:34:32;10.23;;;8.52;;
48317;SDS011;34127;47.412;9.730;2022-09-25T13:36:59;11.57;;;8.40;;
48317;SDS011;34127;47.412;9.730;2022-09-25T13:39:35;11.32;;;8.23;;
48317;SDS011;34127;47.412;9.730;2022-09-25T13:42:31;10.75;;;8.27;;
48317;SDS011;34127;47.412;9.730;2022-09-25T13:47:52;10.68;;;8.15;;
48317;SDS011;34127;47.412;9.730;2022-09-25T13:50:29;10.60;;;8.15;;
48317;SDS011;34127;47.412;9.730;2022-09-25T13:58:20;9.70;;;8.02;;
48317;SDS011;34127;47.412;9.730;2022-09-25T14:03:36;10.35;;;7.78;;
48317;SDS011;34127;47.412;9.730;2022-09-25T14:06:03;11.23;;;8.05;;
48317;SDS011;34127;47.412;9.730;2022-09-25T14:08:37;15.23;;;9.05;;
48317;SDS011;34127;47.412;9.730;2022-09-25T14:11:04;11.18;;;9.00;;
48317;SDS011;34127;47.412;9.730;2022-09-25T14:13:33;11.82;;;8.52;;
48317;SDS011;34127;47.412;9.730;2022-09-25T14:15:59;10.93;;;8.57;;
48317;SDS011;34127;47.412;9.730;2022-09-25T14:18:38;12.23;;;9.27;;
48317;SDS011;34127;47.412;9.730;2022-09-25T14:21:04;11.13;;;8.75;;
48317;SDS011;34127;47.412;9.730;2022-09-25T14:23:31;11.60;;;8.95;;
48317;SDS011;34127;47.412;9.730;2022-09-25T14:28:30;11.50;;;8.65;;
48317;SDS011;34127;47.412;9.730;2022-09-25T14:31:12;11.73;;;9.48;;
48317;SDS011;34127;47.412;9.730;2022-09-25T14:33:43;10.93;;;8.23;;
48317;SDS011;34127;47.412;9.730;2022-09-25T14:39:09;11.02;;;8.98;;
48317;SDS011;34127;47.412;9.730;2022-09-25T14:41:47;13.15;;;9.88;;
48317;SDS011;34127;47.412;9.730;2022-09-25T14:46:43;12.07;;;8.88;;
48317;SDS011;34127;47.412;9.730;2022-09-25T14:51:42;11.10;;;9.10;;
48317;SDS011;34127;47.412;9.730;2022-09-25T14:54:16;12.07;;;8.60;;
48317;SDS011;34127;47.412;9.730;2022-09-25T14:56:43;12.00;;;8.63;;
48317;SDS011;34127;47.412;9.730;2022-09-25T14:59:15;10.15;;;7.82;;
48317;SDS011;34127;47.412;9.730;2022-09-25T15:01:46;9.40;;;7.45;;
48317;SDS011;34127;47.412;9.730;2022-09-25T15:04:23;9.82;;;7.80;;
48317;SDS011;34127;47.412;9.730;2022-09-25T15:06:56;10.50;;;8.27;;
48317;SDS011;34127;47.412;9.730;2022-09-25T15:09:33;9.93;;;7.95;;
48317;SDS011;34127;47.412;9.730;2022-09-25T15:12:06;11.15;;;8.60;;
48317;SDS011;34127;47.412;9.730;2022-09-25T15:14:33;10.95;;;8.30;;
48317;SDS011;34127;47.412;9.730;2022-09-25T15:16:59;11.48;;;9.23;;
48317;SDS011;34127;47.412;9.730;2022-09-25T15:19:44;11.82;;;8.82;;
48317;SDS011;34127;47.412;9.730;2022-09-25T15:22:11;12.48;;;9.23;;
48317;SDS011;34127;47.412;9.730;2022-09-25T15:24:46;13.15;;;9.93;;
48317;SDS011;34127;47.412;9.730;2022-09-25T15:27:13;10.45;;;8.35;;
48317;SDS011;34127;47.412;9.730;2022-09-25T15:29:41;10.60;;;7.50;;
48317;SDS011;34127;47.412;9.730;2022-09-25T15:32:22;8.77;;;6.32;;
48317;SDS011;34127;47.412;9.730;2022-09-25T15:34:49;9.10;;;6.90;;
48317;SDS011;34127;47.412;9.730;2022-09-25T15:39:42;9.35;;;7.03;;
48317;SDS011;34127;47.412;9.730;2022-09-25T15:42:14;7.45;;;5.22;;
48317;SDS011;34127;47.412;9.730;2022-09-25T15:44:41;7.22;;;4.55;;
48317;SDS011;34127;47.412;9.730;2022-09-25T15:47:23;6.53;;;4.63;;
48317;SDS011;34127;47.412;9.730;2022-09-25T15:49:53;8.33;;;4.57;;
48317;SDS011;34127;47.412;9.730;2022-09-25T15:52:29;8.35;;;4.90;;
48317;SDS011;34127;47.412;9.730;2022-09-25T15:54:59;7.05;;;5.47;;
48317;SDS011;34127;47.412;9.730;2022-09-25T15:57:27;8.20;;;5.65;;
48317;SDS011;34127;47.412;9.730;2022-09-25T15:59:53;7.30;;;5.18;;
48317;SDS011;34127;47.412;9.730;2022-09-25T16:02:40;7.65;;;5.53;;
48317;SDS011;34127;47.412;9.730;2022-09-25T16:05:31;8.32;;;5.85;;
48317;SDS011;34127;47.412;9.730;2022-09-25T16:08:43;8.43;;;5.68;;
48317;SDS011;34127;47.412;9.730;2022-09-25T16:10:45;10.32;;;6.00;;
48317;SDS011;34127;47.412;9.730;2022-09-25T16:13:18;8.88;;;6.32;;
48317;SDS011;34127;47.412;9.730;2022-09-25T16:15:51;9.50;;;6.10;;
48317;SDS011;34127;47.412;9.730;2022-09-25T16:20:44;8.95;;;6.15;;
48317;SDS011;34127;47.412;9.730;2022-09-25T16:23:45;9.65;;;6.97;;
48317;SDS011;34127;47.412;9.730;2022-09-25T16:26:12;10.07;;;6.65;;
48317;SDS011;34127;47.412;9.730;2022-09-25T16:28:39;11.38;;;6.65;;
48317;SDS011;34127;47.412;9.730;2022-09-25T16:31:08;10.15;;;7.25;;
48317;SDS011;34127;47.412;9.730;2022-09-25T16:33:38;13.07;;;7.40;;
48317;SDS011;34127;47.412;9.730;2022-09-25T16:36:09;10.35;;;6.95;;
48317;SDS011;34127;47.412;9.730;2022-09-25T16:41:28;10.13;;;7.70;;
48317;SDS011;34127;47.412;9.730;2022-09-25T16:44:02;8.90;;;6.18;;
48317;SDS011;34127;47.412;9.730;2022-09-25T16:46:28;8.88;;;5.63;;
48317;SDS011;34127;47.412;9.730;2022-09-25T16:48:58;8.68;;;5.57;;
48317;SDS011;34127;47.412;9.730;2022-09-25T16:51:24;8.18;;;5.80;;
48317;SDS011;34127;47.412;9.730;2022-09-25T16:53:51;7.95;;;4.90;;
48317;SDS011;34127;47.412;9.730;2022-09-25T16:56:20;8.95;;;5.13;;
48317;SDS011;34127;47.412;9.730;2022-09-25T16:58:46;7.22;;;4.78;;
48317;SDS011;34127;47.412;9.730;2022-09-25T17:01:13;7.63;;;5.50;;
48317;SDS011;34127;47.412;9.730;2022-09-25T17:03:39;6.93;;;5.25;;
48317;SDS011;34127;47.412;9.730;2022-09-25T17:06:19;8.02;;;5.93;;
48317;SDS011;34127;47.412;9.730;2022-09-25T17:08:45;7.50;;;5.72;;
48317;SDS011;34127;47.412;9.730;2022-09-25T17:11:12;9.07;;;5.97;;
48317;SDS011;34127;47.412;9.730;2022-09-25T17:13:39;8.02;;;6.18;;
48317;SDS011;34127;47.412;9.730;2022-09-25T17:16:05;8.13;;;5.80;;
48317;SDS011;34127;47.412;9.730;2022-09-25T17:18:31;7.88;;;5.55;;
48317;SDS011;34127;47.412;9.730;2022-09-25T17:20:58;9.35;;;5.75;;
48317;SDS011;34127;47.412;9.730;2022-09-25T17:23:25;8.77;;;6.05;;